Time;durP1;ratioP1;P1;durP2;ratioP2;P2;SDS_P1;SDS_P2;PMS_P1;PMS_P2;Temp;Humidity;BMP_temperature;BMP_pressure;BME280_temperature;BME280_humidity;BME280_pressure;Samples;Min_cycle;Max_cycle;Signal;HPM_P1;HPM_P2
2023/06/17 00:00:38;;;;;;;6.10;3.70;;;;;;;17.61;50.18;100318.50;4978303;28;20762;-46
2023/06/17 00:03:04;;;;;;;6.28;3.08;;;;;;;17.57;50.56;100311.63;4978420;28;20066;-46
2023/06/17 00:05:31;;;;;;;8.73;3.75;;;;;;;17.55;50.94;100313.44;4982194;28;20522;-46
2023/06/17 00:07:58;;;;;;;7.07;3.75;;;;;;;17.53;50.59;100315.25;4986066;28;20046;-46
2023/06/17 00:10:25;;;;;;;7.28;3.50;;;;;;;17.50;50.30;100316.19;4986643;28;20338;-46
2023/06/17 00:12:51;;;;;;;6.47;3.50;;;;;;;17.48;50.18;100317.97;4982730;28;20045;-47
2023/06/17 00:15:20;;;;;;;5.60;3.92;;;;;;;17.47;50.67;100311.88;4981460;28;20049;-48
2023/06/17 00:17:50;;;;;;;8.05;4.03;;;;;;;17.44;51.23;100311.13;4985590;28;20062;-45
2023/06/17 00:20:16;;;;;;;;;;;;;;;17.20;51.38;100308.25;4983504;28;20061;-46
2023/06/17 00:22:44;;;;;;;8.50;4.03;;;;;;;17.35;51.51;100306.97;4980497;28;19929;-45
2023/06/17 00:25:12;;;;;;;7.38;3.60;;;;;;;17.34;50.77;100306.13;4984668;28;20046;-46
2023/06/17 00:27:40;;;;;;;8.68;3.85;;;;;;;17.31;51.40;100300.09;4979471;28;20393;-45
2023/06/17 00:30:07;;;;;;;7.88;4.07;;;;;;;17.28;50.84;100305.41;4979466;28;20046;-47
2023/06/17 00:32:34;;;;;;;7.35;3.47;;;;;;;17.25;51.29;100306.38;4985635;28;20108;-46
2023/06/17 00:35:03;;;;;;;6.57;3.85;;;;;;;17.24;51.30;100302.03;4980694;28;20077;-45
2023/06/17 00:37:29;;;;;;;6.43;3.80;;;;;;;17.21;51.12;100300.38;4980800;28;20085;-46
2023/06/17 00:39:56;;;;;;;7.85;4.15;;;;;;;17.18;50.84;100295.22;4978811;28;20089;-46
2023/06/17 00:42:23;;;;;;;7.53;4.68;;;;;;;17.16;50.84;100291.75;4982491;28;20093;-47
2023/06/17 00:44:50;;;;;;;10.40;4.05;;;;;;;17.13;50.82;100289.25;4986748;28;20058;-47
2023/06/17 00:47:17;;;;;;;7.20;3.85;;;;;;;17.10;51.47;100286.69;4980562;28;20054;-47
2023/06/17 00:49:47;;;;;;;7.25;4.25;;;;;;;17.09;51.51;100282.34;4978651;28;20098;-49
2023/06/17 00:52:15;;;;;;;5.60;3.58;;;;;;;17.05;51.54;100280.69;4980756;28;20475;-46
2023/06/17 00:54:45;;;;;;;7.68;4.45;;;;;;;17.01;51.35;100272.06;4976125;28;20046;-46
2023/06/17 00:57:15;;;;;;;7.28;3.83;;;;;;;16.99;51.24;100278.25;4979972;28;20085;-46
2023/06/17 00:59:44;;;;;;;7.05;3.70;;;;;;;16.98;51.30;100279.16;4974609;28;20051;-46
2023/06/17 01:02:13;;;;;;;9.20;4.00;;;;;;;16.93;51.55;100274.88;4969288;28;20082;-47
2023/06/17 01:04:43;;;;;;;8.73;4.45;;;;;;;16.91;51.13;100266.22;4973728;28;20054;-48
2023/06/17 01:09:49;;;;;;;10.15;5.53;;;;;;;17.35;51.51;100265.09;5044143;27;20402;-47
2023/06/17 01:12:17;;;;;;;9.82;5.75;;;;;;;17.01;51.79;100265.97;5017067;28;20060;-47
2023/06/17 01:14:45;;;;;;;9.57;5.93;;;;;;;16.93;51.49;100259.16;5003621;28;20557;-45
2023/06/17 01:17:13;;;;;;;6.90;4.28;;;;;;;16.89;51.57;100264.53;5003136;28;20408;-46
2023/06/17 01:19:40;;;;;;;7.78;4.07;;;;;;;16.83;52.26;100269.00;5000948;28;20382;-45
2023/06/17 01:22:13;;;;;;;7.72;5.00;;;;;;;16.79;51.86;100256.06;5000490;28;20049;-47
2023/06/17 01:24:40;;;;;;;7.20;3.53;;;;;;;16.74;51.49;100257.91;5001404;28;20385;-47
2023/06/17 01:27:08;;;;;;;9.35;5.72;;;;;;;16.69;52.25;100251.03;5002333;28;20057;-45
2023/06/17 01:29:37;;;;;;;9.05;5.22;;;;;;;16.65;52.08;100248.56;5001437;28;20061;-47
2023/06/17 01:32:06;;;;;;;8.43;5.55;;;;;;;16.61;52.01;100252.16;5001286;28;20042;-46
2023/06/17 01:34:43;;;;;;;12.65;5.90;;;;;;;16.56;51.78;100247.03;5000779;28;20042;-45
2023/06/17 01:37:12;;;;;;;6.60;5.10;;;;;;;16.50;51.94;100249.78;4992626;28;20046;-47
2023/06/17 01:39:42;;;;;;;8.43;5.55;;;;;;;16.48;51.57;100251.59;4995490;28;20705;-47
2023/06/17 01:42:28;;;;;;;7.30;4.95;;;;;;;16.43;51.60;100255.19;4996076;28;20054;-47
2023/06/17 01:44:56;;;;;;;7.55;4.90;;;;;;;16.40;51.43;100252.63;4996224;28;20046;-46
2023/06/17 01:47:23;;;;;;;6.28;4.97;;;;;;;16.38;51.75;100240.50;4997077;28;20058;-45
2023/06/17 01:49:50;;;;;;;11.18;5.40;;;;;;;16.33;51.33;100238.00;4992251;28;20073;-46
2023/06/17 01:52:16;;;;;;;6.68;4.85;;;;;;;16.29;51.14;100236.34;4991961;28;20050;-45
2023/06/17 01:54:43;;;;;;;9.57;5.22;;;;;;;16.25;51.39;100237.31;4994367;28;20056;-47
2023/06/17 01:57:10;;;;;;;9.05;5.47;;;;;;;16.23;51.20;100233.88;4997359;28;20076;-46
2023/06/17 01:59:36;;;;;;;6.95;4.63;;;;;;;16.20;51.10;100226.97;4999857;28;20053;-47
2023/06/17 02:02:03;;;;;;;5.95;4.53;;;;;;;16.16;51.17;100220.97;4997162;28;20054;-46
2023/06/17 02:04:30;;;;;;;7.18;3.35;;;;;;;16.11;51.36;100217.56;4994660;28;20380;-52
2023/06/17 02:06:56;;;;;;;7.50;4.57;;;;;;;16.10;51.35;100208.03;4998460;28;20049;-46
2023/06/17 02:09:23;;;;;;;6.95;4.20;;;;;;;16.07;50.90;100205.47;4999309;28;20046;-47
2023/06/17 02:11:50;;;;;;;6.63;4.93;;;;;;;16.02;51.20;100199.50;5000088;28;20061;-48
2023/06/17 02:14:16;;;;;;;8.68;4.82;;;;;;;15.99;51.42;100196.97;5000418;28;20049;-47
2023/06/17 02:16:46;;;;;;;6.55;3.00;;;;;;;15.96;51.40;100197.03;5002483;28;20394;-45
2023/06/17 02:19:14;;;;;;;6.53;5.63;;;;;;;15.91;50.81;100190.13;4998065;28;20100;-46
2023/06/17 02:21:42;;;;;;;6.68;4.10;;;;;;;15.89;50.71;100191.94;5020772;28;20053;-46
2023/06/17 02:24:10;;;;;;;7.75;4.80;;;;;;;15.86;51.04;100194.59;4987509;28;20046;-46
2023/06/17 02:26:37;;;;;;;7.78;4.72;;;;;;;15.84;50.70;100196.38;4984994;28;20050;-46
2023/06/17 02:29:04;;;;;;;6.80;5.63;;;;;;;15.80;50.48;100190.38;4986026;28;20042;-46
2023/06/17 02:31:32;;;;;;;5.35;3.08;;;;;;;15.78;50.04;100199.97;4978384;28;20449;-47
2023/06/17 02:34:01;;;;;;;5.80;4.93;;;;;;;15.77;50.61;100197.44;4989252;28;20074;-47
2023/06/17 02:36:27;;;;;;;6.90;4.60;;;;;;;15.73;50.30;100194.00;5009958;28;20048;-46
2023/06/17 02:38:54;;;;;;;6.50;4.60;;;;;;;15.70;50.08;100196.69;4980801;28;20046;-48
2023/06/17 02:41:21;;;;;;;8.02;5.18;;;;;;;15.67;50.70;100197.63;4986258;28;20047;-46
2023/06/17 02:43:47;;;;;;;11.48;4.63;;;;;;;15.64;50.34;100197.69;4987074;28;20049;-48
2023/06/17 02:46:14;;;;;;;9.85;5.55;;;;;;;15.61;50.67;100192.53;4984490;28;20046;-48
2023/06/17 02:48:41;;;;;;;7.25;5.22;;;;;;;15.57;50.54;100193.47;4987220;28;20054;-47
2023/06/17 02:51:08;;;;;;;7.57;4.88;;;;;;;15.54;50.77;100197.00;4985127;28;20097;-47
2023/06/17 02:53:35;;;;;;;6.95;4.90;;;;;;;15.52;50.87;100187.50;4987002;28;20054;-47
2023/06/17 02:56:02;;;;;;;7.07;3.33;;;;;;;15.51;50.88;100191.00;4986370;28;20462;-45
2023/06/17 02:58:28;;;;;;;7.22;5.38;;;;;;;15.47;50.27;100181.53;4984283;28;20166;-46
2023/06/17 03:00:55;;;;;;;6.03;4.15;;;;;;;15.45;50.22;100176.34;4981280;28;20062;-46
2023/06/17 03:03:33;;;;;;;7.03;4.50;;;;;;;15.44;50.06;100184.19;4971437;28;20054;-46
2023/06/17 03:06:04;;;;;;;9.35;4.40;;;;;;;15.42;50.04;100177.25;4983664;28;20576;-46
2023/06/17 03:08:33;;;;;;;6.07;4.22;;;;;;;15.38;50.29;100172.13;4978709;28;20054;-47
2023/06/17 03:11:00;;;;;;;6.10;3.40;;;;;;;15.35;50.11;100167.84;4980855;28;20459;-45
2023/06/17 03:13:28;;;;;;;8.32;4.70;;;;;;;15.33;50.51;100161.78;4978676;28;20066;-47
2023/06/17 03:15:55;;;;;;;7.13;4.68;;;;;;;15.30;50.16;100161.84;4978031;28;20105;-46
2023/06/17 03:18:22;;;;;;;7.68;4.72;;;;;;;15.28;50.44;100166.25;4977067;28;20108;-46
2023/06/17 03:20:50;;;;;;;7.30;4.10;;;;;;;15.25;50.47;100164.56;4978026;28;20073;-47
2023/06/17 03:23:17;;;;;;;8.98;4.85;;;;;;;15.24;50.21;100161.97;4977304;28;20049;-47
2023/06/17 03:25:44;;;;;;;8.05;4.25;;;;;;;15.22;49.61;100158.53;4977096;28;20049;-46
2023/06/17 03:28:11;;;;;;;7.35;4.45;;;;;;;15.19;49.57;100158.63;4985992;28;20039;-46
2023/06/17 03:30:40;;;;;;;10.10;5.45;;;;;;;15.14;49.65;100149.09;4982374;28;20042;-46
2023/06/17 03:33:07;;;;;;;6.90;3.83;;;;;;;15.13;49.76;100144.78;4985239;28;20053;-46
2023/06/17 03:35:35;;;;;;;7.30;3.90;;;;;;;15.11;49.22;100149.19;4985189;28;20050;-48
2023/06/17 03:38:02;;;;;;;6.15;3.90;;;;;;;15.08;48.72;100141.41;4988347;28;20046;-46
2023/06/17 03:40:28;;;;;;;5.22;3.65;;;;;;;15.07;49.40;100139.72;4981062;28;20062;-46
2023/06/17 03:42:55;;;;;;;5.15;2.65;;;;;;;15.05;48.49;100144.09;4985350;28;20892;-46
2023/06/17 03:45:22;;;;;;;7.15;3.85;;;;;;;15.02;49.35;100147.63;4983041;28;20053;-46
2023/06/17 03:47:49;;;;;;;5.93;3.88;;;;;;;15.00;49.39;100145.94;4978133;28;20053;-46
2023/06/17 03:50:16;;;;;;;6.53;2.88;;;;;;;14.98;49.03;100148.56;4985491;28;20498;-45
2023/06/17 03:52:43;;;;;;;7.38;4.38;;;;;;;14.96;49.48;100152.09;4981994;28;20046;-47
2023/06/17 03:55:10;;;;;;;7.18;4.47;;;;;;;14.95;48.60;100150.34;4983294;28;20061;-45
2023/06/17 03:57:36;;;;;;;5.65;4.15;;;;;;;14.93;48.94;100152.16;4983246;28;20113;-46
2023/06/17 04:00:06;;;;;;;5.80;4.07;;;;;;;14.90;48.82;100143.50;4985669;28;20051;-46
2023/06/17 04:02:32;;;;;;;7.22;4.60;;;;;;;14.88;49.26;100147.88;4981605;28;20053;-47
2023/06/17 04:05:00;;;;;;;8.13;4.88;;;;;;;14.86;48.72;100144.44;4983717;28;20054;-45
2023/06/17 04:07:28;;;;;;;8.38;5.15;;;;;;;14.85;49.19;100145.34;4982483;28;20046;-45
2023/06/17 04:09:55;;;;;;;6.43;4.32;;;;;;;14.86;49.40;100141.81;4985955;28;20494;-45
2023/06/17 04:12:33;;;;;;;6.10;4.35;;;;;;;14.85;49.25;100150.56;4981006;28;20182;-45
2023/06/17 04:15:00;;;;;;;7.45;5.10;;;;;;;14.85;49.97;100142.72;4988676;28;20054;-45
2023/06/17 04:17:26;;;;;;;6.70;4.03;;;;;;;14.87;49.03;100143.56;4982946;28;20049;-45
2023/06/17 04:19:56;;;;;;;6.70;4.15;;;;;;;14.87;49.17;100142.69;4982982;28;20078;-44
2023/06/17 04:22:23;;;;;;;9.73;4.80;;;;;;;14.88;49.91;100140.06;4985269;28;20061;-46
2023/06/17 04:24:55;;;;;;;10.23;6.18;;;;;;;14.89;49.34;100139.16;4983475;28;20058;-45
2023/06/17 04:27:22;;;;;;;8.50;5.45;;;;;;;14.89;49.79;100141.78;4985471;28;20517;-45
2023/06/17 04:29:49;;;;;;;7.55;4.75;;;;;;;14.92;49.67;100137.41;4986129;28;20050;-46
2023/06/17 04:32:15;;;;;;;6.72;4.60;;;;;;;14.93;50.07;100131.28;4985705;28;20529;-44
2023/06/17 04:34:47;;;;;;;6.55;4.88;;;;;;;14.94;50.30;100127.78;4984839;28;20054;-44
2023/06/17 04:37:14;;;;;;;6.70;5.25;;;;;;;14.95;50.39;100130.38;4981120;28;20568;-48
2023/06/17 04:39:42;;;;;;;8.30;5.43;;;;;;;14.96;51.11;100132.06;4984321;28;20148;-44
2023/06/17 04:42:10;;;;;;;8.25;4.53;;;;;;;15.01;50.99;100132.88;4981405;28;20082;-45
2023/06/17 04:44:38;;;;;;;7.65;5.78;;;;;;;15.06;50.64;100124.94;4983462;28;20073;-50
2023/06/17 04:47:07;;;;;;;6.55;5.32;;;;;;;15.14;50.65;100125.63;4976124;28;20046;-46
2023/06/17 04:49:38;;;;;;;6.72;5.32;;;;;;;15.25;51.26;100137.59;4985676;28;20156;-46
2023/06/17 04:52:06;;;;;;;9.07;5.20;;;;;;;15.33;50.83;100130.47;4985494;28;20129;-47
2023/06/17 04:54:34;;;;;;;9.27;4.78;;;;;;;15.43;51.20;100141.56;4980532;28;20509;-46
2023/06/17 04:57:01;;;;;;;7.88;5.18;;;;;;;15.54;50.57;100144.81;4978578;28;20852;-45
2023/06/17 04:59:27;;;;;;;6.40;3.55;;;;;;;15.65;50.95;100139.38;4984361;28;20414;-45
2023/06/17 05:01:54;;;;;;;7.80;5.55;;;;;;;15.78;50.77;100141.69;4982595;28;20494;-47
2023/06/17 05:04:20;;;;;;;7.82;4.72;;;;;;;15.91;50.69;100142.28;4976623;28;20108;-47
2023/06/17 05:06:47;;;;;;;7.03;4.70;;;;;;;16.04;50.80;100137.63;4976894;28;20058;-46
2023/06/17 05:09:14;;;;;;;6.97;5.10;;;;;;;16.14;50.35;100139.13;4985405;28;20048;-45
2023/06/17 05:11:42;;;;;;;7.85;6.57;;;;;;;16.26;50.41;100139.72;4982436;28;20054;-48
2023/06/17 05:14:09;;;;;;;6.82;4.82;;;;;;;16.32;50.23;100142.19;4976477;28;20050;-46
2023/06/17 05:16:35;;;;;;;6.28;4.38;;;;;;;16.39;50.06;100143.75;4972255;28;20050;-46
2023/06/17 05:19:02;;;;;;;9.13;5.15;;;;;;;16.48;49.98;100141.78;4978603;28;20077;-47
2023/06/17 05:21:29;;;;;;;7.43;4.70;;;;;;;16.54;50.14;100133.78;4981553;28;20042;-48
2023/06/17 05:23:56;;;;;;;8.45;5.15;;;;;;;16.58;49.71;100143.25;4981496;28;20046;-48
2023/06/17 05:26:22;;;;;;;10.90;4.20;;;;;;;16.62;49.78;100142.28;4980136;28;20058;-47
2023/06/17 05:28:49;;;;;;;7.15;3.33;;;;;;;16.67;50.03;100148.25;4979441;28;20534;-46
2023/06/17 05:31:16;;;;;;;6.55;5.85;;;;;;;16.70;49.65;100145.56;4980969;28;20077;-48
2023/06/17 05:33:42;;;;;;;9.07;5.75;;;;;;;16.73;49.45;100142.00;4985414;28;20054;-47
2023/06/17 05:36:09;;;;;;;7.65;4.32;;;;;;;16.73;49.85;100147.25;4983512;28;20056;-46
2023/06/17 05:38:36;;;;;;;6.53;4.90;;;;;;;16.75;49.47;100145.41;4983880;28;20697;-47
2023/06/17 05:41:02;;;;;;;6.20;4.22;;;;;;;16.74;48.91;100142.84;4987856;28;20080;-47
2023/06/17 05:43:29;;;;;;;8.57;4.00;;;;;;;16.74;49.47;100153.31;4983672;28;20046;-48
2023/06/17 05:45:56;;;;;;;7.05;4.80;;;;;;;16.76;49.95;100146.28;4979809;28;20061;-45
2023/06/17 05:48:22;;;;;;;6.18;4.40;;;;;;;16.76;49.33;100141.94;4979586;28;20084;-49
2023/06/17 05:50:51;;;;;;;6.28;4.07;;;;;;;16.78;49.10;100139.25;4938745;28;20161;-46
2023/06/17 05:53:18;;;;;;;6.65;4.20;;;;;;;16.78;49.95;100144.47;4982536;28;20053;-47
2023/06/17 05:55:45;;;;;;;4.80;3.00;;;;;;;16.77;49.63;100142.78;4981277;28;20414;-46
2023/06/17 05:58:11;;;;;;;6.60;4.40;;;;;;;16.77;49.36;100151.47;4982364;28;20057;-46
2023/06/17 06:00:38;;;;;;;6.03;4.32;;;;;;;16.78;49.09;100147.09;4980219;28;20053;-49
2023/06/17 06:03:05;;;;;;;6.20;3.90;;;;;;;16.80;49.19;100143.56;4988374;28;20065;-47
2023/06/17 06:05:31;;;;;;;5.88;4.25;;;;;;;16.81;49.47;100141.78;4984268;28;20051;-50
2023/06/17 06:07:58;;;;;;;5.95;4.25;;;;;;;16.83;49.47;100142.63;4987088;28;20053;-46
2023/06/17 06:10:28;;;;;;;7.35;3.95;;;;;;;16.83;49.34;100133.00;4986555;28;20100;-48
2023/06/17 06:12:55;;;;;;;7.25;5.13;;;;;;;16.86;49.80;100134.69;4983934;28;20495;-49
2023/06/17 06:15:23;;;;;;;6.60;2.53;;;;;;;16.86;49.46;100145.16;5016763;28;20406;-47
2023/06/17 06:17:49;;;;;;;5.60;4.15;;;;;;;16.84;50.20;100136.47;4984777;28;20046;-47
2023/06/17 06:20:16;;;;;;;5.40;4.05;;;;;;;16.84;49.64;100136.47;4983840;28;20102;-46
2023/06/17 06:22:43;;;;;;;5.15;3.03;;;;;;;16.84;49.90;100144.31;4986573;28;20228;-46
2023/06/17 06:25:10;;;;;;;6.05;3.90;;;;;;;16.83;49.13;100143.44;4983152;28;20073;-45
2023/06/17 06:27:36;;;;;;;8.27;4.07;;;;;;;16.85;49.04;100140.78;4984001;28;20573;-46
2023/06/17 06:30:03;;;;;;;5.38;4.38;;;;;;;16.89;49.72;100147.66;4988136;28;20101;-47
2023/06/17 06:32:30;;;;;;;5.68;3.90;;;;;;;16.96;49.58;100146.59;4989146;28;20054;-47
2023/06/17 06:34:57;;;;;;;5.05;3.75;;;;;;;17.02;49.80;100147.34;4986937;28;20050;-46
2023/06/17 06:37:23;;;;;;;6.80;4.18;;;;;;;17.04;49.73;100156.00;4981611;28;20046;-45
2023/06/17 06:39:50;;;;;;;12.15;4.70;;;;;;;17.04;49.30;100146.41;4987552;28;20138;-48
2023/06/17 06:42:17;;;;;;;7.45;4.25;;;;;;;17.08;49.50;100149.81;4986036;28;20038;-46
2023/06/17 06:44:43;;;;;;;6.00;3.55;;;;;;;17.11;49.78;100147.09;4985925;28;20057;-47
2023/06/17 06:47:10;;;;;;;4.35;3.50;;;;;;;17.15;49.75;100153.09;4980957;28;20054;-48
2023/06/17 06:49:37;;;;;;;4.80;3.40;;;;;;;17.18;49.43;100155.63;4982713;28;20046;-46
2023/06/17 06:52:04;;;;;;;6.50;4.28;;;;;;;17.21;49.89;100164.28;4981823;28;20073;-45
2023/06/17 06:54:30;;;;;;;5.35;3.45;;;;;;;17.23;49.65;100161.59;4984888;28;20109;-46
2023/06/17 06:56:57;;;;;;;5.70;2.90;;;;;;;17.25;50.06;100164.19;4986543;28;20418;-47
2023/06/17 06:59:24;;;;;;;6.38;4.22;;;;;;;17.28;49.45;100159.72;4984368;28;20056;-49
2023/06/17 07:01:51;;;;;;;7.78;4.55;;;;;;;17.29;50.50;100156.19;4977945;28;20054;-46
2023/06/17 07:04:20;;;;;;;6.63;4.20;;;;;;;17.32;50.52;100155.22;4976124;28;20053;-44
2023/06/17 07:06:46;;;;;;;5.38;4.40;;;;;;;17.32;50.81;100152.59;4984318;28;20054;-45
2023/06/17 07:09:13;;;;;;;7.40;4.65;;;;;;;17.33;50.25;100152.56;4980047;28;20157;-46
2023/06/17 07:11:40;;;;;;;6.63;4.13;;;;;;;17.35;50.45;100149.91;4982967;28;20116;-46
2023/06/17 07:14:07;;;;;;;6.18;4.18;;;;;;;17.38;50.62;100154.19;4985061;28;20042;-47
2023/06/17 07:16:33;;;;;;;6.13;4.32;;;;;;;17.38;50.83;100160.28;4980649;28;20061;-45
2023/06/17 07:19:00;;;;;;;6.03;3.95;;;;;;;17.35;51.17;100160.38;4984148;28;20046;-48
2023/06/17 07:21:27;;;;;;;7.60;4.25;;;;;;;17.30;51.32;100160.50;4984624;28;20065;-46
2023/06/17 07:23:53;;;;;;;6.82;3.95;;;;;;;17.26;50.98;100158.03;4982279;28;20057;-46
2023/06/17 07:26:20;;;;;;;5.70;4.15;;;;;;;17.25;51.14;100161.56;4985076;28;20775;-45
2023/06/17 07:28:47;;;;;;;6.20;4.05;;;;;;;17.25;51.37;100158.94;4985204;28;20053;-46
2023/06/17 07:31:13;;;;;;;6.18;4.20;;;;;;;17.28;50.95;100153.59;4982645;28;20054;-46
2023/06/17 07:33:40;;;;;;;6.70;3.40;;;;;;;17.35;51.25;100155.13;4982914;28;20530;-48
2023/06/17 07:36:07;;;;;;;6.45;4.28;;;;;;;17.46;51.16;100158.31;5013257;28;20050;-46
2023/06/17 07:38:34;;;;;;;5.05;3.88;;;;;;;17.54;50.72;100155.47;4982185;28;20046;-46
2023/06/17 07:41:01;;;;;;;8.20;4.03;;;;;;;17.62;50.90;100163.06;4982358;28;20078;-46
2023/06/17 07:43:28;;;;;;;4.93;3.92;;;;;;;17.65;50.52;100160.38;4982902;28;20046;-46
2023/06/17 07:45:54;;;;;;;5.32;4.15;;;;;;;17.70;50.90;100171.56;4975831;28;20065;-48
2023/06/17 07:48:21;;;;;;;5.35;4.07;;;;;;;17.72;50.39;100168.91;4983515;28;20056;-46
2023/06/17 07:50:47;;;;;;;4.90;3.75;;;;;;;17.76;51.15;100161.81;4984378;28;20499;-46
2023/06/17 07:53:15;;;;;;;4.78;3.38;;;;;;;17.80;50.61;100158.19;4979555;28;20054;-46
2023/06/17 07:55:41;;;;;;;6.20;3.63;;;;;;;17.82;50.33;100164.22;4983697;28;20081;-46
2023/06/17 07:58:08;;;;;;;8.35;3.45;;;;;;;17.89;50.84;100157.88;4980853;28;20042;-46
2023/06/17 08:00:35;;;;;;;4.20;3.22;;;;;;;17.99;50.48;100154.09;4981815;28;20066;-46
2023/06/17 08:03:02;;;;;;;5.15;4.03;;;;;;;18.08;50.72;100154.69;4982828;28;20069;-49
2023/06/17 08:05:29;;;;;;;4.70;3.50;;;;;;;18.16;50.28;100157.94;4982258;28;20050;-49
2023/06/17 08:07:56;;;;;;;6.00;4.30;;;;;;;18.26;50.93;100155.88;4982990;28;20050;-47
2023/06/17 08:10:22;;;;;;;5.50;3.75;;;;;;;18.33;50.08;100149.53;4984345;28;20054;-47
2023/06/17 08:12:49;;;;;;;4.35;3.13;;;;;;;18.38;50.07;100149.38;4977943;28;20137;-46
2023/06/17 08:15:16;;;;;;;3.50;2.03;;;;;;;18.43;49.81;100155.31;4980647;28;20586;-45
2023/06/17 08:17:43;;;;;;;3.90;2.55;;;;;;;18.49;50.01;100155.13;4985542;28;20474;-47
2023/06/17 08:20:10;;;;;;;5.90;3.90;;;;;;;18.55;49.97;100158.44;4978809;28;20101;-46
2023/06/17 08:22:37;;;;;;;4.90;4.07;;;;;;;18.58;49.61;100153.09;4983968;28;20129;-47
2023/06/17 08:25:04;;;;;;;6.18;3.20;;;;;;;18.62;49.18;100150.28;4982787;28;20116;-45
2023/06/17 08:27:32;;;;;;;4.13;3.40;;;;;;;18.72;49.30;100142.97;4982587;28;20050;-45
2023/06/17 08:29:58;;;;;;;4.72;3.75;;;;;;;18.84;50.13;100148.66;4984051;28;20051;-48
2023/06/17 08:32:25;;;;;;;4.68;2.65;;;;;;;18.92;48.85;100141.41;4982232;28;20426;-47
2023/06/17 08:34:52;;;;;;;5.38;3.53;;;;;;;18.96;48.94;100143.00;4985567;28;20038;-46
2023/06/17 08:37:18;;;;;;;4.35;3.13;;;;;;;19.05;49.05;100140.94;4982157;28;20039;-48
2023/06/17 08:39:45;;;;;;;5.80;2.40;;;;;;;19.16;49.09;100133.56;4983484;28;20384;-48
2023/06/17 08:42:12;;;;;;;3.92;2.13;;;;;;;19.33;49.11;100135.56;4974418;28;20395;-48
2023/06/17 08:44:42;;;;;;;7.35;3.65;;;;;;;19.45;48.81;100142.09;4981091;28;20046;-47
2023/06/17 08:47:15;;;;;;;6.50;3.40;;;;;;;19.56;48.09;100146.09;4982140;28;20050;-48
2023/06/17 08:49:43;;;;;;;4.10;3.35;;;;;;;19.67;48.72;100133.38;4983059;28;20686;-49
2023/06/17 08:52:13;;;;;;;5.63;3.70;;;;;;;19.76;48.40;100133.00;5010963;28;20053;-47
2023/06/17 08:54:41;;;;;;;3.90;3.30;;;;;;;19.88;47.86;100136.06;4982906;28;20050;-47
2023/06/17 08:57:12;;;;;;;5.93;3.63;;;;;;;19.94;48.31;100135.81;4984874;28;20048;-49
2023/06/17 08:59:40;;;;;;;5.10;4.40;;;;;;;19.98;47.78;100131.28;4979364;28;20051;-49
2023/06/17 09:02:07;;;;;;;5.78;3.42;;;;;;;20.07;47.67;100132.72;4982783;28;20053;-47
2023/06/17 09:04:35;;;;;;;5.07;3.35;;;;;;;20.14;48.07;100136.81;5011570;28;20069;-49
2023/06/17 09:07:02;;;;;;;6.20;3.38;;;;;;;20.20;47.48;100135.69;4979325;28;20061;-48
2023/06/17 09:09:29;;;;;;;5.05;3.75;;;;;;;20.28;47.93;100134.47;5016534;28;20046;-48
2023/06/17 09:11:55;;;;;;;5.65;3.80;;;;;;;20.37;47.38;100137.63;4979944;28;20061;-46
2023/06/17 09:14:22;;;;;;;6.55;3.50;;;;;;;20.45;47.97;100140.78;4982858;28;20506;-48
2023/06/17 09:16:50;;;;;;;5.10;4.32;;;;;;;20.55;47.92;100135.97;4978873;28;20051;-48
2023/06/17 09:19:17;;;;;;;4.13;3.33;;;;;;;20.60;47.50;100130.53;5005182;28;20046;-46
2023/06/17 09:21:47;;;;;;;4.40;3.25;;;;;;;20.63;47.38;100122.47;4977945;28;20145;-46
2023/06/17 09:24:14;;;;;;;4.32;3.92;;;;;;;20.66;47.30;100130.25;4980190;28;20158;-47
2023/06/17 09:26:43;;;;;;;4.50;3.78;;;;;;;20.69;47.02;100122.22;4982210;28;20086;-46
2023/06/17 09:29:11;;;;;;;4.50;3.13;;;;;;;20.67;46.13;100119.66;4981099;28;20585;-46
2023/06/17 09:31:51;;;;;;;5.53;4.40;;;;;;;20.66;46.58;100128.47;4984438;28;20062;-48
2023/06/17 09:34:20;;;;;;;4.05;3.22;;;;;;;20.76;46.60;100121.03;4983473;28;20052;-45
2023/06/17 09:37:03;;;;;;;4.93;3.63;;;;;;;20.78;46.22;100121.78;4983842;28;20050;-47
2023/06/17 09:39:31;;;;;;;5.25;3.83;;;;;;;20.84;46.11;100119.84;4982281;28;20052;-47
2023/06/17 09:42:12;;;;;;;5.18;4.15;;;;;;;20.73;45.04;100123.78;4989010;28;20042;-46
2023/06/17 09:44:40;;;;;;;4.25;2.60;;;;;;;20.75;45.67;100116.69;4965886;28;20454;-48
2023/06/17 09:47:08;;;;;;;4.55;3.38;;;;;;;20.77;45.97;100109.56;4965923;28;20740;-48
2023/06/17 09:49:36;;;;;;;4.95;3.58;;;;;;;20.80;46.12;100108.56;4997968;28;20085;-47
2023/06/17 09:52:05;;;;;;;5.95;3.65;;;;;;;20.79;45.79;100101.59;4980353;28;20267;-48
2023/06/17 09:54:33;;;;;;;7.25;4.15;;;;;;;20.81;46.28;100108.50;4994237;28;20047;-48
2023/06/17 09:57:01;;;;;;;4.88;2.85;;;;;;;20.86;46.62;100103.03;4960872;28;20470;-46
2023/06/17 09:59:28;;;;;;;6.63;3.15;;;;;;;20.92;46.71;100096.69;4984962;28;20517;-46
2023/06/17 10:01:56;;;;;;;5.57;3.47;;;;;;;20.98;46.52;100095.53;4984375;28;20050;-47
2023/06/17 10:04:22;;;;;;;4.72;3.55;;;;;;;21.01;46.75;100101.50;4988105;28;21249;-49
2023/06/17 10:06:50;;;;;;;4.93;3.50;;;;;;;21.02;46.20;100097.97;4988721;28;20042;-47
2023/06/17 10:09:17;;;;;;;6.20;3.20;;;;;;;21.03;45.97;100097.03;4986023;28;20049;-46
2023/06/17 10:11:47;;;;;;;6.03;4.43;;;;;;;21.02;46.56;100089.22;5012280;28;20125;-46
2023/06/17 10:14:21;;;;;;;4.63;3.65;;;;;;;21.01;46.84;100085.72;4977640;28;20114;-47
2023/06/17 10:16:49;;;;;;;6.05;4.20;;;;;;;21.00;46.69;100088.41;4982473;28;20057;-48
2023/06/17 10:19:20;;;;;;;3.60;2.13;;;;;;;21.02;46.58;100087.44;4980151;28;20465;-46
2023/06/17 10:21:50;;;;;;;6.13;4.15;;;;;;;21.08;47.35;100090.72;4982576;28;20112;-47
2023/06/17 10:24:18;;;;;;;5.72;4.30;;;;;;;21.12;47.26;100097.53;4983144;28;20771;-48
2023/06/17 10:26:49;;;;;;;4.72;3.80;;;;;;;21.17;47.33;100093.78;4980369;28;20081;-46
2023/06/17 10:29:17;;;;;;;4.97;3.70;;;;;;;21.24;47.20;100086.44;4981180;28;20054;-48
2023/06/17 10:31:43;;;;;;;5.38;3.72;;;;;;;21.30;47.60;100091.41;4985094;28;20053;-47
2023/06/17 10:34:16;;;;;;;4.20;3.80;;;;;;;21.38;47.44;100096.31;4987179;28;20050;-49
2023/06/17 10:36:57;;;;;;;12.68;4.13;;;;;;;21.45;47.35;100094.25;4988212;28;20053;-48
2023/06/17 10:39:23;;;;;;;6.85;3.78;;;;;;;21.56;47.94;100102.50;4986986;28;20057;-46
2023/06/17 10:41:55;;;;;;;5.78;3.20;;;;;;;21.63;47.84;100102.19;4983094;28;20061;-47
2023/06/17 10:47:14;;;;;;;4.30;3.00;;;;;;;21.75;46.91;100106.06;5048234;27;20435;-47
2023/06/17 10:49:42;;;;;;;6.10;2.80;;;;;;;21.78;46.85;100096.22;5037573;28;20132;-47
2023/06/17 10:52:13;;;;;;;3.95;2.28;;;;;;;21.88;46.44;100095.78;5039116;28;20048;-47
2023/06/17 10:54:55;;;;;;;5.65;2.83;;;;;;;21.94;46.12;100083.13;5053779;28;20635;-45
2023/06/17 10:57:31;;;;;;;3.72;2.53;;;;;;;22.14;46.02;100080.41;5041963;28;20456;-47
2023/06/17 11:00:00;;;;;;;4.80;2.95;;;;;;;22.34;46.05;100080.25;5056077;28;20525;-49
2023/06/17 11:02:27;;;;;;;5.75;2.50;;;;;;;22.47;45.48;100077.81;5035361;28;20053;-48
2023/06/17 11:04:56;;;;;;;4.07;2.83;;;;;;;22.62;45.63;100075.31;5033284;28;20055;-48
2023/06/17 11:07:26;;;;;;;3.70;2.30;;;;;;;22.74;45.17;100068.56;5035608;28;20251;-48
2023/06/17 11:09:53;;;;;;;5.22;2.53;;;;;;;22.89;45.40;100063.38;5037807;28;20501;-48
2023/06/17 11:12:20;;;;;;;8.98;3.05;;;;;;;23.04;45.26;100065.19;5028868;28;20508;-47
2023/06/17 11:14:47;;;;;;;5.93;2.60;;;;;;;23.18;45.02;100053.00;5041728;28;20045;-48
2023/06/17 11:17:13;;;;;;;5.07;2.78;;;;;;;23.33;45.29;100060.06;5043952;28;20045;-50
2023/06/17 11:19:40;;;;;;;4.75;2.90;;;;;;;23.50;44.66;100060.91;5041804;28;20135;-48
2023/06/17 11:22:07;;;;;;;4.13;2.92;;;;;;;23.60;44.61;100059.47;5039518;28;20053;-50
2023/06/17 11:24:35;;;;;;;4.32;3.05;;;;;;;23.72;43.72;100062.34;5032489;28;20055;-51
2023/06/17 11:27:05;;;;;;;4.47;3.53;;;;;;;23.86;43.93;100062.41;5033390;28;20048;-49
2023/06/17 11:29:32;;;;;;;4.68;2.60;;;;;;;24.04;43.63;100058.75;5039428;28;20060;-46
2023/06/17 11:32:00;;;;;;;3.95;2.58;;;;;;;24.18;44.43;100050.03;5037068;28;20056;-46